sensor_id;sensor_type;location;lat;lon;timestamp;P1;durP1;ratioP1;P2;durP2;ratioP2
32038;SDS011;18549;42.286;22.688;2022-09-09T00:00:20;14.35;;;7.43;;
32038;SDS011;18549;42.286;22.688;2022-09-09T00:02:50;7.45;;;4.70;;
32038;SDS011;18549;42.286;22.688;2022-09-09T00:05:24;13.60;;;4.60;;
32038;SDS011;18549;42.286;22.688;2022-09-09T00:07:59;8.65;;;5.40;;
32038;SDS011;18549;42.286;22.688;2022-09-09T00:10:30;10.80;;;5.00;;
32038;SDS011;18549;42.286;22.688;2022-09-09T00:13:01;14.13;;;5.72;;
32038;SDS011;18549;42.286;22.688;2022-09-09T00:15:39;7.32;;;5.47;;
32038;SDS011;18549;42.286;22.688;2022-09-09T00:18:13;9.85;;;5.40;;
32038;SDS011;18549;42.286;22.688;2022-09-09T00:20:49;13.80;;;5.40;;
32038;SDS011;18549;42.286;22.688;2022-09-09T00:23:24;12.75;;;5.45;;
32038;SDS011;18549;42.286;22.688;2022-09-09T00:25:56;17.23;;;5.40;;
32038;SDS011;18549;42.286;22.688;2022-09-09T00:28:29;13.60;;;5.80;;
32038;SDS011;18549;42.286;22.688;2022-09-09T00:31:01;7.00;;;4.97;;
32038;SDS011;18549;42.286;22.688;2022-09-09T00:33:39;13.30;;;5.85;;
32038;SDS011;18549;42.286;22.688;2022-09-09T00:36:09;9.18;;;6.18;;
32038;SDS011;18549;42.286;22.688;2022-09-09T00:38:42;15.05;;;5.72;;
32038;SDS011;18549;42.286;22.688;2022-09-09T00:41:14;11.50;;;5.82;;
32038;SDS011;18549;42.286;22.688;2022-09-09T00:43:51;19.05;;;7.25;;
32038;SDS011;18549;42.286;22.688;2022-09-09T00:49:20;10.18;;;6.85;;
32038;SDS011;18549;42.286;22.688;2022-09-09T00:51:59;11.52;;;6.15;;
32038;SDS011;18549;42.286;22.688;2022-09-09T00:54:40;12.77;;;6.03;;
32038;SDS011;18549;42.286;22.688;2022-09-09T00:57:21;10.52;;;6.47;;
32038;SDS011;18549;42.286;22.688;2022-09-09T00:59:55;10.43;;;6.93;;
32038;SDS011;18549;42.286;22.688;2022-09-09T01:02:31;10.20;;;6.43;;
32038;SDS011;18549;42.286;22.688;2022-09-09T01:05:07;15.18;;;6.75;;
32038;SDS011;18549;42.286;22.688;2022-09-09T01:07:40;10.65;;;7.30;;
32038;SDS011;18549;42.286;22.688;2022-09-09T01:10:15;14.70;;;7.65;;
32038;SDS011;18549;42.286;22.688;2022-09-09T01:12:51;13.90;;;6.85;;
32038;SDS011;18549;42.286;22.688;2022-09-09T01:15:21;8.77;;;7.20;;
32038;SDS011;18549;42.286;22.688;2022-09-09T01:17:56;12.80;;;7.32;;
32038;SDS011;18549;42.286;22.688;2022-09-09T01:20:29;8.50;;;6.45;;
32038;SDS011;18549;42.286;22.688;2022-09-09T01:23:14;8.43;;;7.55;;
32038;SDS011;18549;42.286;22.688;2022-09-09T01:28:43;12.18;;;7.95;;
32038;SDS011;18549;42.286;22.688;2022-09-09T01:31:14;10.02;;;7.10;;
32038;SDS011;18549;42.286;22.688;2022-09-09T01:33:46;8.98;;;7.12;;
32038;SDS011;18549;42.286;22.688;2022-09-09T01:36:15;9.82;;;7.57;;
32038;SDS011;18549;42.286;22.688;2022-09-09T01:38:48;9.52;;;7.43;;
32038;SDS011;18549;42.286;22.688;2022-09-09T01:41:17;10.75;;;7.43;;
32038;SDS011;18549;42.286;22.688;2022-09-09T01:43:45;7.85;;;6.47;;
32038;SDS011;18549;42.286;22.688;2022-09-09T01:46:12;9.77;;;7.20;;
32038;SDS011;18549;42.286;22.688;2022-09-09T01:48:40;13.32;;;7.75;;
32038;SDS011;18549;42.286;22.688;2022-09-09T01:51:09;17.52;;;8.00;;
32038;SDS011;18549;42.286;22.688;2022-09-09T01:53:37;7.87;;;7.07;;
32038;SDS011;18549;42.286;22.688;2022-09-09T01:56:11;9.98;;;7.10;;
32038;SDS011;18549;42.286;22.688;2022-09-09T01:58:59;10.55;;;7.50;;
32038;SDS011;18549;42.286;22.688;2022-09-09T02:01:38;9.63;;;7.47;;
32038;SDS011;18549;42.286;22.688;2022-09-09T02:04:15;16.85;;;6.95;;
32038;SDS011;18549;42.286;22.688;2022-09-09T02:06:49;13.75;;;6.97;;
32038;SDS011;18549;42.286;22.688;2022-09-09T02:09:23;14.65;;;7.07;;
32038;SDS011;18549;42.286;22.688;2022-09-09T02:11:54;12.57;;;6.18;;
32038;SDS011;18549;42.286;22.688;2022-09-09T02:14:27;14.73;;;4.80;;
32038;SDS011;18549;42.286;22.688;2022-09-09T02:16:57;12.32;;;6.95;;
32038;SDS011;18549;42.286;22.688;2022-09-09T02:19:29;7.87;;;6.18;;
32038;SDS011;18549;42.286;22.688;2022-09-09T02:22:01;13.00;;;6.68;;
32038;SDS011;18549;42.286;22.688;2022-09-09T02:24:30;10.40;;;6.75;;
32038;SDS011;18549;42.286;22.688;2022-09-09T02:27:01;9.60;;;5.82;;
32038;SDS011;18549;42.286;22.688;2022-09-09T02:29:34;11.52;;;6.78;;
32038;SDS011;18549;42.286;22.688;2022-09-09T02:32:05;22.77;;;6.82;;
32038;SDS011;18549;42.286;22.688;2022-09-09T02:34:36;14.23;;;6.55;;
32038;SDS011;18549;42.286;22.688;2022-09-09T02:37:07;8.70;;;6.30;;
32038;SDS011;18549;42.286;22.688;2022-09-09T02:39:36;8.13;;;5.80;;
32038;SDS011;18549;42.286;22.688;2022-09-09T02:42:05;8.32;;;5.75;;
32038;SDS011;18549;42.286;22.688;2022-09-09T02:44:33;12.80;;;6.53;;
32038;SDS011;18549;42.286;22.688;2022-09-09T02:47:07;15.38;;;6.35;;
32038;SDS011;18549;42.286;22.688;2022-09-09T02:49:56;9.38;;;6.37;;
32038;SDS011;18549;42.286;22.688;2022-09-09T02:52:33;14.35;;;5.97;;
32038;SDS011;18549;42.286;22.688;2022-09-09T02:55:11;17.77;;;6.60;;
32038;SDS011;18549;42.286;22.688;2022-09-09T02:57:44;7.57;;;6.22;;
32038;SDS011;18549;42.286;22.688;2022-09-09T03:00:14;14.35;;;6.53;;
32038;SDS011;18549;42.286;22.688;2022-09-09T03:02:41;15.23;;;7.32;;
32038;SDS011;18549;42.286;22.688;2022-09-09T03:05:10;10.02;;;5.35;;
32038;SDS011;18549;42.286;22.688;2022-09-09T03:07:38;15.48;;;6.72;;
32038;SDS011;18549;42.286;22.688;2022-09-09T03:10:07;6.87;;;5.68;;
32038;SDS011;18549;42.286;22.688;2022-09-09T03:12:35;10.88;;;5.62;;
32038;SDS011;18549;42.286;22.688;2022-09-09T03:15:06;9.05;;;5.87;;
32038;SDS011;18549;42.286;22.688;2022-09-09T03:17:35;11.65;;;6.43;;
32038;SDS011;18549;42.286;22.688;2022-09-09T03:20:03;14.63;;;6.82;;
32038;SDS011;18549;42.286;22.688;2022-09-09T03:22:31;10.93;;;6.65;;
32038;SDS011;18549;42.286;22.688;2022-09-09T03:24:58;11.85;;;8.00;;
32038;SDS011;18549;42.286;22.688;2022-09-09T03:27:26;11.75;;;7.57;;
32038;SDS011;18549;42.286;22.688;2022-09-09T03:29:53;11.82;;;7.25;;
32038;SDS011;18549;42.286;22.688;2022-09-09T03:32:22;16.90;;;8.27;;
32038;SDS011;18549;42.286;22.688;2022-09-09T03:34:51;16.83;;;8.05;;
32038;SDS011;18549;42.286;22.688;2022-09-09T03:37:18;13.77;;;8.13;;
32038;SDS011;18549;42.286;22.688;2022-09-09T03:39:47;20.83;;;9.38;;
32038;SDS011;18549;42.286;22.688;2022-09-09T03:42:15;14.77;;;7.65;;
32038;SDS011;18549;42.286;22.688;2022-09-09T03:44:44;13.68;;;7.18;;
32038;SDS011;18549;42.286;22.688;2022-09-09T03:47:15;17.90;;;6.93;;
32038;SDS011;18549;42.286;22.688;2022-09-09T03:49:46;16.92;;;7.80;;
32038;SDS011;18549;42.286;22.688;2022-09-09T03:52:14;13.60;;;8.45;;
32038;SDS011;18549;42.286;22.688;2022-09-09T03:54:44;10.75;;;6.95;;
32038;SDS011;18549;42.286;22.688;2022-09-09T03:57:11;12.55;;;7.30;;
32038;SDS011;18549;42.286;22.688;2022-09-09T03:59:41;17.95;;;7.72;;
32038;SDS011;18549;42.286;22.688;2022-09-09T04:02:09;13.70;;;7.62;;
32038;SDS011;18549;42.286;22.688;2022-09-09T04:04:37;14.13;;;8.55;;
32038;SDS011;18549;42.286;22.688;2022-09-09T04:07:06;11.95;;;8.18;;
32038;SDS011;18549;42.286;22.688;2022-09-09T04:09:34;8.43;;;7.53;;
32038;SDS011;18549;42.286;22.688;2022-09-09T04:12:01;10.77;;;7.37;;
32038;SDS011;18549;42.286;22.688;2022-09-09T04:14:29;20.67;;;8.77;;
32038;SDS011;18549;42.286;22.688;2022-09-09T04:16:56;18.15;;;8.77;;
32038;SDS011;18549;42.286;22.688;2022-09-09T04:19:24;15.73;;;9.30;;
32038;SDS011;18549;42.286;22.688;2022-09-09T04:21:52;12.48;;;8.82;;
32038;SDS011;18549;42.286;22.688;2022-09-09T04:24:21;20.95;;;9.02;;
32038;SDS011;18549;42.286;22.688;2022-09-09T04:26:49;20.75;;;10.38;;
32038;SDS011;18549;42.286;22.688;2022-09-09T04:29:17;19.05;;;9.88;;
32038;SDS011;18549;42.286;22.688;2022-09-09T04:31:46;17.67;;;10.10;;
32038;SDS011;18549;42.286;22.688;2022-09-09T04:34:13;16.85;;;9.40;;
32038;SDS011;18549;42.286;22.688;2022-09-09T04:36:41;16.75;;;10.75;;
32038;SDS011;18549;42.286;22.688;2022-09-09T04:39:09;12.45;;;10.35;;
32038;SDS011;18549;42.286;22.688;2022-09-09T04:41:38;10.57;;;8.63;;
32038;SDS011;18549;42.286;22.688;2022-09-09T04:44:05;19.12;;;10.45;;
32038;SDS011;18549;42.286;22.688;2022-09-09T04:46:33;14.23;;;9.57;;
32038;SDS011;18549;42.286;22.688;2022-09-09T04:49:00;11.15;;;9.38;;
32038;SDS011;18549;42.286;22.688;2022-09-09T04:51:28;15.27;;;9.85;;
32038;SDS011;18549;42.286;22.688;2022-09-09T04:53:56;16.52;;;10.07;;
32038;SDS011;18549;42.286;22.688;2022-09-09T04:56:24;18.70;;;10.05;;
32038;SDS011;18549;42.286;22.688;2022-09-09T04:58:54;19.58;;;9.40;;
32038;SDS011;18549;42.286;22.688;2022-09-09T05:01:22;21.40;;;9.68;;
32038;SDS011;18549;42.286;22.688;2022-09-09T05:03:50;20.00;;;11.20;;
32038;SDS011;18549;42.286;22.688;2022-09-09T05:06:19;15.60;;;10.85;;
32038;SDS011;18549;42.286;22.688;2022-09-09T05:08:47;16.25;;;10.15;;
32038;SDS011;18549;42.286;22.688;2022-09-09T05:11:16;15.88;;;9.93;;
32038;SDS011;18549;42.286;22.688;2022-09-09T05:13:45;17.35;;;9.40;;
32038;SDS011;18549;42.286;22.688;2022-09-09T05:16:15;20.08;;;10.13;;
32038;SDS011;18549;42.286;22.688;2022-09-09T05:18:43;22.35;;;10.32;;
32038;SDS011;18549;42.286;22.688;2022-09-09T05:21:13;20.25;;;9.30;;
32038;SDS011;18549;42.286;22.688;2022-09-09T05:23:42;15.88;;;8.80;;
32038;SDS011;18549;42.286;22.688;2022-09-09T05:26:12;19.73;;;10.80;;
32038;SDS011;18549;42.286;22.688;2022-09-09T05:28:43;15.40;;;10.20;;
32038;SDS011;18549;42.286;22.688;2022-09-09T05:31:12;22.87;;;10.75;;
32038;SDS011;18549;42.286;22.688;2022-09-09T05:33:44;13.38;;;9.93;;
32038;SDS011;18549;42.286;22.688;2022-09-09T05:36:16;20.50;;;9.43;;
32038;SDS011;18549;42.286;22.688;2022-09-09T05:38:46;18.90;;;9.10;;
32038;SDS011;18549;42.286;22.688;2022-09-09T05:41:14;23.95;;;9.13;;
32038;SDS011;18549;42.286;22.688;2022-09-09T05:43:43;15.30;;;9.43;;
32038;SDS011;18549;42.286;22.688;2022-09-09T05:46:12;37.42;;;11.10;;
32038;SDS011;18549;42.286;22.688;2022-09-09T05:48:42;13.25;;;8.20;;
32038;SDS011;18549;42.286;22.688;2022-09-09T05:51:12;12.77;;;8.70;;
32038;SDS011;18549;42.286;22.688;2022-09-09T05:53:42;20.15;;;9.68;;
32038;SDS011;18549;42.286;22.688;2022-09-09T05:56:11;15.18;;;9.00;;
32038;SDS011;18549;42.286;22.688;2022-09-09T05:58:41;12.35;;;8.90;;
32038;SDS011;18549;42.286;22.688;2022-09-09T06:01:10;21.62;;;10.27;;
32038;SDS011;18549;42.286;22.688;2022-09-09T06:03:40;20.15;;;10.90;;
32038;SDS011;18549;42.286;22.688;2022-09-09T06:06:10;13.75;;;8.68;;
32038;SDS011;18549;42.286;22.688;2022-09-09T06:08:39;25.08;;;11.75;;
32038;SDS011;18549;42.286;22.688;2022-09-09T06:11:09;20.10;;;9.98;;
32038;SDS011;18549;42.286;22.688;2022-09-09T06:13:39;10.57;;;8.48;;
32038;SDS011;18549;42.286;22.688;2022-09-09T06:16:07;19.62;;;8.88;;
32038;SDS011;18549;42.286;22.688;2022-09-09T06:18:36;22.67;;;10.00;;
32038;SDS011;18549;42.286;22.688;2022-09-09T06:21:06;17.60;;;9.90;;
32038;SDS011;18549;42.286;22.688;2022-09-09T06:23:36;17.67;;;9.10;;
32038;SDS011;18549;42.286;22.688;2022-09-09T06:26:06;16.80;;;10.20;;
32038;SDS011;18549;42.286;22.688;2022-09-09T06:28:36;20.50;;;9.52;;
32038;SDS011;18549;42.286;22.688;2022-09-09T06:31:05;16.95;;;8.38;;
32038;SDS011;18549;42.286;22.688;2022-09-09T06:33:35;18.10;;;9.23;;
32038;SDS011;18549;42.286;22.688;2022-09-09T06:36:09;15.80;;;9.15;;
32038;SDS011;18549;42.286;22.688;2022-09-09T06:38:39;14.77;;;9.93;;
32038;SDS011;18549;42.286;22.688;2022-09-09T06:41:07;27.20;;;10.23;;
32038;SDS011;18549;42.286;22.688;2022-09-09T06:43:35;19.62;;;8.98;;
32038;SDS011;18549;42.286;22.688;2022-09-09T06:46:03;17.55;;;8.93;;
32038;SDS011;18549;42.286;22.688;2022-09-09T06:48:33;15.13;;;9.25;;
32038;SDS011;18549;42.286;22.688;2022-09-09T06:51:01;13.15;;;9.18;;
32038;SDS011;18549;42.286;22.688;2022-09-09T06:53:32;11.90;;;9.15;;
32038;SDS011;18549;42.286;22.688;2022-09-09T06:56:00;14.27;;;9.65;;
32038;SDS011;18549;42.286;22.688;2022-09-09T06:58:28;16.00;;;9.82;;
32038;SDS011;18549;42.286;22.688;2022-09-09T07:01:01;11.98;;;8.52;;
32038;SDS011;18549;42.286;22.688;2022-09-09T07:03:30;22.27;;;8.63;;
32038;SDS011;18549;42.286;22.688;2022-09-09T07:05:57;16.33;;;8.90;;
32038;SDS011;18549;42.286;22.688;2022-09-09T07:08:25;14.52;;;8.95;;
32038;SDS011;18549;42.286;22.688;2022-09-09T07:10:54;15.00;;;8.85;;
32038;SDS011;18549;42.286;22.688;2022-09-09T07:13:30;13.55;;;9.65;;
32038;SDS011;18549;42.286;22.688;2022-09-09T07:16:02;11.30;;;8.25;;
32038;SDS011;18549;42.286;22.688;2022-09-09T07:18:31;13.43;;;9.45;;
32038;SDS011;18549;42.286;22.688;2022-09-09T07:21:00;19.83;;;9.40;;
32038;SDS011;18549;42.286;22.688;2022-09-09T07:23:29;13.05;;;9.77;;
32038;SDS011;18549;42.286;22.688;2022-09-09T07:25:58;11.98;;;8.43;;
32038;SDS011;18549;42.286;22.688;2022-09-09T07:28:26;14.55;;;8.68;;
32038;SDS011;18549;42.286;22.688;2022-09-09T07:30:56;11.65;;;8.50;;
32038;SDS011;18549;42.286;22.688;2022-09-09T07:33:26;18.25;;;8.77;;
32038;SDS011;18549;42.286;22.688;2022-09-09T07:36:01;15.35;;;8.82;;
32038;SDS011;18549;42.286;22.688;2022-09-09T07:38:29;14.90;;;8.35;;
32038;SDS011;18549;42.286;22.688;2022-09-09T07:41:04;14.50;;;8.20;;
32038;SDS011;18549;42.286;22.688;2022-09-09T07:43:33;14.65;;;8.65;;
32038;SDS011;18549;42.286;22.688;2022-09-09T07:46:00;13.18;;;8.10;;
32038;SDS011;18549;42.286;22.688;2022-09-09T07:48:28;11.35;;;7.62;;
32038;SDS011;18549;42.286;22.688;2022-09-09T07:51:05;7.95;;;7.15;;
32038;SDS011;18549;42.286;22.688;2022-09-09T07:53:35;10.23;;;7.93;;
32038;SDS011;18549;42.286;22.688;2022-09-09T07:56:06;10.20;;;7.72;;
32038;SDS011;18549;42.286;22.688;2022-09-09T07:58:34;10.90;;;7.00;;
32038;SDS011;18549;42.286;22.688;2022-09-09T08:01:06;9.40;;;7.10;;
32038;SDS011;18549;42.286;22.688;2022-09-09T08:03:35;25.55;;;8.32;;
32038;SDS011;18549;42.286;22.688;2022-09-09T08:06:02;16.12;;;7.40;;
32038;SDS011;18549;42.286;22.688;2022-09-09T08:08:31;15.50;;;7.37;;
32038;SDS011;18549;42.286;22.688;2022-09-09T08:11:02;12.45;;;8.35;;
32038;SDS011;18549;42.286;22.688;2022-09-09T08:13:34;23.92;;;9.45;;
32038;SDS011;18549;42.286;22.688;2022-09-09T08:16:06;11.68;;;8.10;;
32038;SDS011;18549;42.286;22.688;2022-09-09T08:18:34;15.57;;;8.50;;
32038;SDS011;18549;42.286;22.688;2022-09-09T08:21:07;12.50;;;8.00;;
32038;SDS011;18549;42.286;22.688;2022-09-09T08:23:37;10.55;;;7.55;;
32038;SDS011;18549;42.286;22.688;2022-09-09T08:26:07;16.33;;;7.82;;
32038;SDS011;18549;42.286;22.688;2022-09-09T08:28:39;15.13;;;8.27;;
32038;SDS011;18549;42.286;22.688;2022-09-09T08:31:08;21.37;;;8.18;;
32038;SDS011;18549;42.286;22.688;2022-09-09T08:33:37;9.60;;;7.50;;
32038;SDS011;18549;42.286;22.688;2022-09-09T08:36:08;18.15;;;10.13;;
32038;SDS011;18549;42.286;22.688;2022-09-09T08:38:37;68.28;;;31.30;;
32038;SDS011;18549;42.286;22.688;2022-09-09T08:41:16;40.65;;;21.27;;
32038;SDS011;18549;42.286;22.688;2022-09-09T08:44:00;26.58;;;15.15;;
32038;SDS011;18549;42.286;22.688;2022-09-09T08:46:33;46.95;;;24.87;;
32038;SDS011;18549;42.286;22.688;2022-09-09T08:49:13;48.70;;;26.27;;
32038;SDS011;18549;42.286;22.688;2022-09-09T08:51:53;42.62;;;20.48;;
32038;SDS011;18549;42.286;22.688;2022-09-09T08:54:23;32.38;;;16.45;;
32038;SDS011;18549;42.286;22.688;2022-09-09T08:56:52;21.17;;;11.25;;
32038;SDS011;18549;42.286;22.688;2022-09-09T08:59:23;20.77;;;9.38;;
32038;SDS011;18549;42.286;22.688;2022-09-09T09:01:52;12.73;;;9.60;;
32038;SDS011;18549;42.286;22.688;2022-09-09T09:04:38;10.57;;;9.23;;
32038;SDS011;18549;42.286;22.688;2022-09-09T09:07:18;20.17;;;8.82;;
32038;SDS011;18549;42.286;22.688;2022-09-09T09:09:54;24.70;;;11.25;;
32038;SDS011;18549;42.286;22.688;2022-09-09T09:12:29;21.73;;;10.77;;
32038;SDS011;18549;42.286;22.688;2022-09-09T09:15:07;19.08;;;10.40;;
32038;SDS011;18549;42.286;22.688;2022-09-09T09:17:42;14.98;;;8.90;;
32038;SDS011;18549;42.286;22.688;2022-09-09T09:20:11;14.68;;;9.00;;
32038;SDS011;18549;42.286;22.688;2022-09-09T09:22:44;12.68;;;7.68;;
32038;SDS011;18549;42.286;22.688;2022-09-09T09:25:17;22.10;;;8.90;;
32038;SDS011;18549;42.286;22.688;2022-09-09T09:27:49;14.10;;;9.00;;
32038;SDS011;18549;42.286;22.688;2022-09-09T09:30:28;14.32;;;8.43;;
32038;SDS011;18549;42.286;22.688;2022-09-09T09:33:02;15.05;;;9.48;;
32038;SDS011;18549;42.286;22.688;2022-09-09T09:35:35;16.00;;;9.23;;
32038;SDS011;18549;42.286;22.688;2022-09-09T09:38:05;14.30;;;10.00;;
32038;SDS011;18549;42.286;22.688;2022-09-09T09:40:48;11.95;;;8.15;;
32038;SDS011;18549;42.286;22.688;2022-09-09T09:43:18;17.85;;;10.55;;
32038;SDS011;18549;42.286;22.688;2022-09-09T09:45:51;19.25;;;10.68;;
32038;SDS011;18549;42.286;22.688;2022-09-09T09:48:19;15.05;;;10.25;;
32038;SDS011;18549;42.286;22.688;2022-09-09T09:50:47;17.37;;;9.88;;
32038;SDS011;18549;42.286;22.688;2022-09-09T09:53:19;16.70;;;9.77;;
32038;SDS011;18549;42.286;22.688;2022-09-09T09:55:52;12.80;;;9.82;;
32038;SDS011;18549;42.286;22.688;2022-09-09T09:58:22;18.30;;;10.55;;
32038;SDS011;18549;42.286;22.688;2022-09-09T10:00:54;12.85;;;9.68;;
32038;SDS011;18549;42.286;22.688;2022-09-09T10:03:23;14.60;;;9.95;;
32038;SDS011;18549;42.286;22.688;2022-09-09T10:05:52;12.10;;;9.95;;
32038;SDS011;18549;42.286;22.688;2022-09-09T10:08:21;17.02;;;9.80;;
32038;SDS011;18549;42.286;22.688;2022-09-09T10:11:05;16.45;;;9.27;;
32038;SDS011;18549;42.286;22.688;2022-09-09T10:13:46;18.92;;;8.85;;
32038;SDS011;18549;42.286;22.688;2022-09-09T10:16:25;11.00;;;7.62;;
32038;SDS011;18549;42.286;22.688;2022-09-09T10:19:03;11.02;;;6.80;;
32038;SDS011;18549;42.286;22.688;2022-09-09T10:21:52;13.77;;;7.47;;
32038;SDS011;18549;42.286;22.688;2022-09-09T10:27:33;10.55;;;7.37;;
32038;SDS011;18549;42.286;22.688;2022-09-09T10:30:12;16.33;;;8.13;;
32038;SDS011;18549;42.286;22.688;2022-09-09T10:32:48;10.63;;;8.18;;
32038;SDS011;18549;42.286;22.688;2022-09-09T10:35:26;10.98;;;8.40;;
32038;SDS011;18549;42.286;22.688;2022-09-09T10:38:02;11.68;;;8.30;;
32038;SDS011;18549;42.286;22.688;2022-09-09T10:40:42;12.20;;;9.18;;
32038;SDS011;18549;42.286;22.688;2022-09-09T10:43:20;12.55;;;9.50;;
32038;SDS011;18549;42.286;22.688;2022-09-09T10:46:01;16.00;;;8.93;;
32038;SDS011;18549;42.286;22.688;2022-09-09T10:48:39;13.93;;;9.90;;
32038;SDS011;18549;42.286;22.688;2022-09-09T10:51:22;17.75;;;10.73;;
32038;SDS011;18549;42.286;22.688;2022-09-09T10:54:01;12.95;;;10.43;;
32038;SDS011;18549;42.286;22.688;2022-09-09T10:56:39;13.30;;;10.45;;
32038;SDS011;18549;42.286;22.688;2022-09-09T10:59:10;13.90;;;10.45;;
32038;SDS011;18549;42.286;22.688;2022-09-09T11:01:41;9.52;;;8.52;;
32038;SDS011;18549;42.286;22.688;2022-09-09T11:04:15;14.35;;;9.30;;
32038;SDS011;18549;42.286;22.688;2022-09-09T11:06:48;14.65;;;9.07;;
32038;SDS011;18549;42.286;22.688;2022-09-09T11:09:21;17.65;;;11.25;;
32038;SDS011;18549;42.286;22.688;2022-09-09T11:11:53;12.90;;;8.90;;
32038;SDS011;18549;42.286;22.688;2022-09-09T11:14:24;13.68;;;8.57;;
32038;SDS011;18549;42.286;22.688;2022-09-09T11:16:57;26.37;;;12.68;;
32038;SDS011;18549;42.286;22.688;2022-09-09T11:19:30;16.17;;;11.43;;
32038;SDS011;18549;42.286;22.688;2022-09-09T11:22:01;20.52;;;8.75;;
32038;SDS011;18549;42.286;22.688;2022-09-09T11:24:35;10.88;;;8.90;;
32038;SDS011;18549;42.286;22.688;2022-09-09T11:27:08;22.42;;;10.18;;
32038;SDS011;18549;42.286;22.688;2022-09-09T11:35:42;16.05;;;9.65;;
32038;SDS011;18549;42.286;22.688;2022-09-09T11:38:25;13.25;;;8.90;;
32038;SDS011;18549;42.286;22.688;2022-09-09T11:40:54;10.05;;;8.18;;
32038;SDS011;18549;42.286;22.688;2022-09-09T11:43:26;10.45;;;8.45;;
32038;SDS011;18549;42.286;22.688;2022-09-09T11:45:57;10.73;;;8.32;;
32038;SDS011;18549;42.286;22.688;2022-09-09T11:48:29;13.15;;;6.78;;
32038;SDS011;18549;42.286;22.688;2022-09-09T11:51:05;10.93;;;7.47;;
32038;SDS011;18549;42.286;22.688;2022-09-09T11:53:34;8.45;;;7.20;;
32038;SDS011;18549;42.286;22.688;2022-09-09T11:56:13;8.65;;;6.60;;
32038;SDS011;18549;42.286;22.688;2022-09-09T11:58:55;8.90;;;7.50;;
32038;SDS011;18549;42.286;22.688;2022-09-09T12:01:29;15.85;;;7.32;;
32038;SDS011;18549;42.286;22.688;2022-09-09T12:04:05;11.65;;;6.40;;
32038;SDS011;18549;42.286;22.688;2022-09-09T12:06:56;18.40;;;7.50;;
32038;SDS011;18549;42.286;22.688;2022-09-09T12:09:28;13.82;;;7.95;;
32038;SDS011;18549;42.286;22.688;2022-09-09T12:12:06;18.15;;;8.60;;
32038;SDS011;18549;42.286;22.688;2022-09-09T12:14:55;16.00;;;8.38;;
32038;SDS011;18549;42.286;22.688;2022-09-09T12:17:27;9.57;;;7.82;;
32038;SDS011;18549;42.286;22.688;2022-09-09T12:20:00;16.05;;;8.57;;
32038;SDS011;18549;42.286;22.688;2022-09-09T12:22:36;12.43;;;8.00;;
32038;SDS011;18549;42.286;22.688;2022-09-09T12:25:15;10.50;;;6.87;;
32038;SDS011;18549;42.286;22.688;2022-09-09T12:27:50;11.38;;;8.30;;
32038;SDS011;18549;42.286;22.688;2022-09-09T12:30:29;11.80;;;7.82;;
32038;SDS011;18549;42.286;22.688;2022-09-09T12:33:00;11.38;;;8.13;;
32038;SDS011;18549;42.286;22.688;2022-09-09T12:35:28;14.65;;;8.15;;
32038;SDS011;18549;42.286;22.688;2022-09-09T12:38:00;15.23;;;9.13;;
32038;SDS011;18549;42.286;22.688;2022-09-09T12:40:29;17.83;;;10.02;;
32038;SDS011;18549;42.286;22.688;2022-09-09T12:43:00;18.87;;;9.88;;
32038;SDS011;18549;42.286;22.688;2022-09-09T12:45:28;19.62;;;9.50;;
32038;SDS011;18549;42.286;22.688;2022-09-09T12:47:58;16.45;;;9.90;;
32038;SDS011;18549;42.286;22.688;2022-09-09T12:50:30;12.85;;;9.48;;
32038;SDS011;18549;42.286;22.688;2022-09-09T12:53:01;10.20;;;8.68;;
32038;SDS011;18549;42.286;22.688;2022-09-09T12:55:35;10.20;;;8.15;;
32038;SDS011;18549;42.286;22.688;2022-09-09T12:58:04;12.60;;;9.60;;
32038;SDS011;18549;42.286;22.688;2022-09-09T13:00:33;10.77;;;8.48;;
32038;SDS011;18549;42.286;22.688;2022-09-09T13:03:02;15.20;;;9.02;;
32038;SDS011;18549;42.286;22.688;2022-09-09T13:05:42;15.00;;;8.45;;
32038;SDS011;18549;42.286;22.688;2022-09-09T13:08:13;14.65;;;8.38;;
32038;SDS011;18549;42.286;22.688;2022-09-09T13:10:46;13.95;;;8.10;;
32038;SDS011;18549;42.286;22.688;2022-09-09T13:13:19;15.68;;;8.10;;
32038;SDS011;18549;42.286;22.688;2022-09-09T13:15:49;13.10;;;8.80;;
32038;SDS011;18549;42.286;22.688;2022-09-09T13:18:21;17.37;;;8.30;;
32038;SDS011;18549;42.286;22.688;2022-09-09T13:20:53;18.25;;;10.20;;
32038;SDS011;18549;42.286;22.688;2022-09-09T13:23:28;21.67;;;9.35;;
32038;SDS011;18549;42.286;22.688;2022-09-09T13:26:00;11.45;;;8.65;;
32038;SDS011;18549;42.286;22.688;2022-09-09T13:28:33;11.85;;;8.50;;
32038;SDS011;18549;42.286;22.688;2022-09-09T13:31:05;14.55;;;10.15;;
32038;SDS011;18549;42.286;22.688;2022-09-09T13:33:52;12.73;;;8.63;;
32038;SDS011;18549;42.286;22.688;2022-09-09T13:36:27;16.45;;;9.82;;
32038;SDS011;18549;42.286;22.688;2022-09-09T13:38:59;14.35;;;10.15;;
32038;SDS011;18549;42.286;22.688;2022-09-09T13:41:29;13.02;;;9.32;;
32038;SDS011;18549;42.286;22.688;2022-09-09T13:43:59;14.52;;;10.35;;
32038;SDS011;18549;42.286;22.688;2022-09-09T13:46:30;20.00;;;12.55;;
32038;SDS011;18549;42.286;22.688;2022-09-09T13:49:00;14.70;;;11.57;;
32038;SDS011;18549;42.286;22.688;2022-09-09T13:51:35;13.02;;;10.45;;
32038;SDS011;18549;42.286;22.688;2022-09-09T13:54:06;10.30;;;9.27;;
32038;SDS011;18549;42.286;22.688;2022-09-09T13:56:36;13.52;;;9.15;;
32038;SDS011;18549;42.286;22.688;2022-09-09T13:59:05;11.38;;;8.90;;
32038;SDS011;18549;42.286;22.688;2022-09-09T14:01:37;17.92;;;9.15;;
32038;SDS011;18549;42.286;22.688;2022-09-09T14:04:06;22.58;;;9.25;;
32038;SDS011;18549;42.286;22.688;2022-09-09T14:06:33;18.60;;;8.90;;
32038;SDS011;18549;42.286;22.688;2022-09-09T14:09:06;11.00;;;8.70;;
32038;SDS011;18549;42.286;22.688;2022-09-09T14:11:36;13.07;;;9.13;;
32038;SDS011;18549;42.286;22.688;2022-09-09T14:14:04;8.75;;;7.87;;
32038;SDS011;18549;42.286;22.688;2022-09-09T14:16:31;16.08;;;9.07;;
32038;SDS011;18549;42.286;22.688;2022-09-09T14:18:59;19.73;;;8.98;;
32038;SDS011;18549;42.286;22.688;2022-09-09T14:21:26;14.55;;;7.65;;
32038;SDS011;18549;42.286;22.688;2022-09-09T14:23:54;13.40;;;8.00;;
32038;SDS011;18549;42.286;22.688;2022-09-09T14:26:24;14.50;;;7.18;;
32038;SDS011;18549;42.286;22.688;2022-09-09T14:28:54;13.57;;;8.68;;
32038;SDS011;18549;42.286;22.688;2022-09-09T14:31:21;16.17;;;9.43;;
32038;SDS011;18549;42.286;22.688;2022-09-09T14:33:49;22.30;;;10.80;;
32038;SDS011;18549;42.286;22.688;2022-09-09T14:36:17;16.85;;;11.18;;
32038;SDS011;18549;42.286;22.688;2022-09-09T14:38:45;25.12;;;14.02;;
32038;SDS011;18549;42.286;22.688;2022-09-09T14:41:13;25.92;;;13.90;;
32038;SDS011;18549;42.286;22.688;2022-09-09T14:43:44;19.33;;;12.73;;
32038;SDS011;18549;42.286;22.688;2022-09-09T14:46:13;14.68;;;11.75;;
32038;SDS011;18549;42.286;22.688;2022-09-09T14:48:42;22.17;;;13.07;;
32038;SDS011;18549;42.286;22.688;2022-09-09T14:51:11;18.15;;;10.95;;
32038;SDS011;18549;42.286;22.688;2022-09-09T14:53:41;22.30;;;11.18;;
32038;SDS011;18549;42.286;22.688;2022-09-09T14:56:10;20.83;;;10.10;;
32038;SDS011;18549;42.286;22.688;2022-09-09T14:58:39;14.35;;;8.85;;
32038;SDS011;18549;42.286;22.688;2022-09-09T15:01:09;16.08;;;8.63;;